Kendricks Ferry, Louisiana
Current Conditions -  °F | °C
As of 6:15 PM on Friday 21 Nov 2014 (Local Time) from KHEZ Reporting Station
Overcast Overcast  
Wind Chill: 63°   Ceiling: 10000
Heat Index: 63°   Visibility: 10mi
Dew Point: 46°   Wind: 7mph
Humidity: 55%   Direction: 140°SE
Pressure: 30.26"   Gusts: NA
Location:  32.0246°N, 91.5666°W
Report Text: KHEZ 220015Z AUTO 14006KT 10SM BKN100 OVC110 17/08 A3026 RMK AO1
Loading
Personal Weather Stations






























Interactive Weather Map New forecast layout! Learn more

10-Day Weather Forecast

Advertisements
Track Severe Weather on mobile